sensor_id;sensor_type;location;lat;lon;timestamp;pressure;altitude;pressure_sealevel;temperature;humidity
35551;BME280;21655;46.056;13.616;2022-07-04T00:00:50;100443.56;;;23.81;94.98
35551;BME280;21655;46.056;13.616;2022-07-04T00:03:15;100447.03;;;23.67;93.84
35551;BME280;21655;46.056;13.616;2022-07-04T00:05:41;100444.09;;;23.57;93.25
35551;BME280;21655;46.056;13.616;2022-07-04T00:08:07;100449.03;;;23.66;94.65
35551;BME280;21655;46.056;13.616;2022-07-04T00:10:32;100444.94;;;23.79;96.31
35551;BME280;21655;46.056;13.616;2022-07-04T00:12:58;100441.50;;;23.77;95.69
35551;BME280;21655;46.056;13.616;2022-07-04T00:15:23;100442.16;;;23.62;91.12
35551;BME280;21655;46.056;13.616;2022-07-04T00:17:49;100441.16;;;23.52;90.80
35551;BME280;21655;46.056;13.616;2022-07-04T00:20:14;100443.84;;;23.63;91.90
35551;BME280;21655;46.056;13.616;2022-07-04T00:22:40;100443.16;;;23.73;91.91
35551;BME280;21655;46.056;13.616;2022-07-04T00:25:06;100440.63;;;23.76;92.73
35551;BME280;21655;46.056;13.616;2022-07-04T00:27:32;100432.31;;;23.86;90.98
35551;BME280;21655;46.056;13.616;2022-07-04T00:29:57;100442.34;;;23.77;91.28
35551;BME280;21655;46.056;13.616;2022-07-04T00:32:23;100437.66;;;23.83;90.19
35551;BME280;21655;46.056;13.616;2022-07-04T00:34:48;100432.34;;;23.70;90.59
35551;BME280;21655;46.056;13.616;2022-07-04T00:37:14;100433.44;;;23.47;91.94
35551;BME280;21655;46.056;13.616;2022-07-04T00:39:39;100435.97;;;23.44;91.53
35551;BME280;21655;46.056;13.616;2022-07-04T00:42:05;100432.91;;;23.29;93.01
35551;BME280;21655;46.056;13.616;2022-07-04T00:44:32;100426.66;;;23.27;93.82
35551;BME280;21655;46.056;13.616;2022-07-04T00:47:02;100426.72;;;23.32;93.81
35551;BME280;21655;46.056;13.616;2022-07-04T00:49:27;100425.19;;;23.41;94.63
35551;BME280;21655;46.056;13.616;2022-07-04T00:51:53;100421.94;;;23.32;94.13
35551;BME280;21655;46.056;13.616;2022-07-04T00:54:18;100420.81;;;23.33;94.93
35551;BME280;21655;46.056;13.616;2022-07-04T00:56:45;100416.34;;;23.37;94.02
35551;BME280;21655;46.056;13.616;2022-07-04T00:59:11;100423.91;;;23.32;94.39
35551;BME280;21655;46.056;13.616;2022-07-04T01:01:38;100425.44;;;23.39;93.59
35551;BME280;21655;46.056;13.616;2022-07-04T01:04:05;100414.16;;;23.44;90.68
35551;BME280;21655;46.056;13.616;2022-07-04T01:06:31;100425.44;;;23.39;90.00
35551;BME280;21655;46.056;13.616;2022-07-04T01:08:57;100423.50;;;23.23;93.16
35551;BME280;21655;46.056;13.616;2022-07-04T01:11:23;100421.78;;;23.22;92.69
35551;BME280;21655;46.056;13.616;2022-07-04T01:13:48;100419.34;;;23.31;91.00
35551;BME280;21655;46.056;13.616;2022-07-04T01:16:14;100418.66;;;23.40;91.06
35551;BME280;21655;46.056;13.616;2022-07-04T01:18:40;100403.16;;;23.26;91.53
35551;BME280;21655;46.056;13.616;2022-07-04T01:21:06;100415.00;;;23.23;92.08
35551;BME280;21655;46.056;13.616;2022-07-04T01:23:37;100412.28;;;23.12;92.57
35551;BME280;21655;46.056;13.616;2022-07-04T01:26:03;100409.38;;;23.07;94.26
35551;BME280;21655;46.056;13.616;2022-07-04T01:28:28;100408.41;;;23.18;93.79
35551;BME280;21655;46.056;13.616;2022-07-04T01:30:54;100399.22;;;23.11;93.03
35551;BME280;21655;46.056;13.616;2022-07-04T01:33:19;100406.97;;;23.15;91.74
35551;BME280;21655;46.056;13.616;2022-07-04T01:35:45;100407.13;;;23.09;90.47
35551;BME280;21655;46.056;13.616;2022-07-04T01:38:11;100407.41;;;22.91;92.55
35551;BME280;21655;46.056;13.616;2022-07-04T01:40:37;100419.84;;;22.90;93.18
35551;BME280;21655;46.056;13.616;2022-07-04T01:43:02;100419.16;;;22.83;95.22
35551;BME280;21655;46.056;13.616;2022-07-04T01:45:28;100408.38;;;22.80;94.34
35551;BME280;21655;46.056;13.616;2022-07-04T01:47:53;100414.63;;;22.82;94.26
35551;BME280;21655;46.056;13.616;2022-07-04T01:50:19;100406.78;;;22.89;94.52
35551;BME280;21655;46.056;13.616;2022-07-04T01:52:45;100407.41;;;22.75;95.14
35551;BME280;21655;46.056;13.616;2022-07-04T01:55:11;100403.13;;;22.72;95.52
35551;BME280;21655;46.056;13.616;2022-07-04T01:57:38;100403.06;;;22.84;94.23
35551;BME280;21655;46.056;13.616;2022-07-04T02:00:05;100402.00;;;22.73;93.67
35551;BME280;21655;46.056;13.616;2022-07-04T02:02:50;100404.41;;;22.65;95.06
35551;BME280;21655;46.056;13.616;2022-07-04T02:05:16;100400.06;;;22.74;94.23
35551;BME280;21655;46.056;13.616;2022-07-04T02:07:41;100398.16;;;22.79;93.76
35551;BME280;21655;46.056;13.616;2022-07-04T02:10:07;100399.81;;;22.75;93.60
35551;BME280;21655;46.056;13.616;2022-07-04T02:12:33;100398.41;;;22.78;91.57
35551;BME280;21655;46.056;13.616;2022-07-04T02:15:17;100399.63;;;22.82;94.00
35551;BME280;21655;46.056;13.616;2022-07-04T02:17:42;100394.63;;;22.89;92.24
35551;BME280;21655;46.056;13.616;2022-07-04T02:20:08;100392.06;;;22.87;92.74
35551;BME280;21655;46.056;13.616;2022-07-04T02:22:34;100398.28;;;22.68;94.80
35551;BME280;21655;46.056;13.616;2022-07-04T02:24:59;100386.16;;;22.72;93.20
35551;BME280;21655;46.056;13.616;2022-07-04T02:27:25;100395.09;;;22.64;92.62
35551;BME280;21655;46.056;13.616;2022-07-04T02:29:50;100401.25;;;22.61;93.40
35551;BME280;21655;46.056;13.616;2022-07-04T02:32:16;100403.97;;;22.56;93.73
35551;BME280;21655;46.056;13.616;2022-07-04T02:34:41;100408.03;;;22.60;94.51
35551;BME280;21655;46.056;13.616;2022-07-04T02:37:07;100401.09;;;22.51;92.21
35551;BME280;21655;46.056;13.616;2022-07-04T02:39:32;100405.22;;;22.60;93.08
35551;BME280;21655;46.056;13.616;2022-07-04T02:41:58;100403.22;;;22.61;90.46
35551;BME280;21655;46.056;13.616;2022-07-04T02:44:23;100399.97;;;22.69;90.14
35551;BME280;21655;46.056;13.616;2022-07-04T02:46:49;100393.03;;;22.76;90.68
35551;BME280;21655;46.056;13.616;2022-07-04T02:49:14;100399.03;;;22.63;93.31
35551;BME280;21655;46.056;13.616;2022-07-04T02:51:40;100393.91;;;22.60;93.18
35551;BME280;21655;46.056;13.616;2022-07-04T02:54:05;100400.28;;;22.72;93.12
35551;BME280;21655;46.056;13.616;2022-07-04T02:56:31;100404.69;;;22.63;93.89
35551;BME280;21655;46.056;13.616;2022-07-04T02:58:56;100406.41;;;22.64;93.20
35551;BME280;21655;46.056;13.616;2022-07-04T03:01:21;100407.16;;;22.60;93.89
35551;BME280;21655;46.056;13.616;2022-07-04T03:03:47;100413.84;;;22.54;93.05
35551;BME280;21655;46.056;13.616;2022-07-04T03:06:13;100413.84;;;22.54;93.66
35551;BME280;21655;46.056;13.616;2022-07-04T03:08:38;100425.84;;;22.44;94.21
35551;BME280;21655;46.056;13.616;2022-07-04T03:11:05;100423.59;;;22.63;94.29
35551;BME280;21655;46.056;13.616;2022-07-04T03:13:31;100425.56;;;22.79;93.73
35551;BME280;21655;46.056;13.616;2022-07-04T03:15:56;100431.00;;;22.80;91.60
35551;BME280;21655;46.056;13.616;2022-07-04T03:18:22;100428.59;;;22.89;91.43
35551;BME280;21655;46.056;13.616;2022-07-04T03:20:47;100425.22;;;22.92;91.62
35551;BME280;21655;46.056;13.616;2022-07-04T03:23:13;100412.81;;;22.76;92.11
35551;BME280;21655;46.056;13.616;2022-07-04T03:25:39;100431.94;;;22.86;92.92
35551;BME280;21655;46.056;13.616;2022-07-04T03:28:05;100422.84;;;22.84;92.06
35551;BME280;21655;46.056;13.616;2022-07-04T03:30:32;100427.38;;;22.85;90.43
35551;BME280;21655;46.056;13.616;2022-07-04T03:32:58;100436.19;;;22.88;91.35
35551;BME280;21655;46.056;13.616;2022-07-04T03:35:24;100431.66;;;22.87;90.83
35551;BME280;21655;46.056;13.616;2022-07-04T03:37:49;100432.25;;;22.89;91.50
35551;BME280;21655;46.056;13.616;2022-07-04T03:40:16;100436.13;;;22.83;92.13
35551;BME280;21655;46.056;13.616;2022-07-04T03:42:42;100440.94;;;22.83;93.14
35551;BME280;21655;46.056;13.616;2022-07-04T03:45:07;100438.19;;;22.88;93.29
35551;BME280;21655;46.056;13.616;2022-07-04T03:47:33;100440.13;;;22.87;91.24
35551;BME280;21655;46.056;13.616;2022-07-04T03:49:59;100438.44;;;22.86;91.76
35551;BME280;21655;46.056;13.616;2022-07-04T03:54:50;100438.25;;;23.09;89.79
35551;BME280;21655;46.056;13.616;2022-07-04T03:57:16;100448.22;;;23.11;89.59
35551;BME280;21655;46.056;13.616;2022-07-04T03:59:41;100439.63;;;23.06;90.47
35551;BME280;21655;46.056;13.616;2022-07-04T04:02:07;100446.97;;;23.07;90.56
35551;BME280;21655;46.056;13.616;2022-07-04T04:04:32;100442.66;;;23.16;90.52
35551;BME280;21655;46.056;13.616;2022-07-04T04:07:16;100436.72;;;23.18;91.17
35551;BME280;21655;46.056;13.616;2022-07-04T04:09:41;100445.47;;;23.16;90.05
35551;BME280;21655;46.056;13.616;2022-07-04T04:12:07;100451.13;;;23.16;88.68
35551;BME280;21655;46.056;13.616;2022-07-04T04:14:33;100439.34;;;23.24;88.88
35551;BME280;21655;46.056;13.616;2022-07-04T04:16:58;100450.75;;;23.29;88.39
35551;BME280;21655;46.056;13.616;2022-07-04T04:19:24;100444.50;;;23.27;88.51
35551;BME280;21655;46.056;13.616;2022-07-04T04:21:49;100436.34;;;23.31;88.93
35551;BME280;21655;46.056;13.616;2022-07-04T04:24:15;100444.13;;;23.40;89.02
35551;BME280;21655;46.056;13.616;2022-07-04T04:26:40;100441.94;;;23.47;88.82
35551;BME280;21655;46.056;13.616;2022-07-04T04:29:06;100445.31;;;23.44;87.97
35551;BME280;21655;46.056;13.616;2022-07-04T04:31:31;100430.63;;;23.47;87.69
35551;BME280;21655;46.056;13.616;2022-07-04T04:33:57;100426.41;;;23.50;87.87
35551;BME280;21655;46.056;13.616;2022-07-04T04:36:23;100425.50;;;23.66;85.70
35551;BME280;21655;46.056;13.616;2022-07-04T04:38:49;100425.84;;;23.69;85.97
35551;BME280;21655;46.056;13.616;2022-07-04T04:41:14;100420.09;;;23.86;85.26
35551;BME280;21655;46.056;13.616;2022-07-04T04:43:41;100418.97;;;24.08;86.08
35551;BME280;21655;46.056;13.616;2022-07-04T04:46:07;100414.50;;;24.39;83.80
35551;BME280;21655;46.056;13.616;2022-07-04T04:48:32;100413.94;;;24.68;81.00
35551;BME280;21655;46.056;13.616;2022-07-04T04:50:58;100414.44;;;24.97;77.09
35551;BME280;21655;46.056;13.616;2022-07-04T04:53:23;100412.81;;;25.06;76.04
35551;BME280;21655;46.056;13.616;2022-07-04T04:55:51;100404.31;;;25.10;76.16
35551;BME280;21655;46.056;13.616;2022-07-04T04:58:17;100401.03;;;25.23;73.27
35551;BME280;21655;46.056;13.616;2022-07-04T05:00:43;100396.38;;;25.54;72.24
35551;BME280;21655;46.056;13.616;2022-07-04T05:03:08;100389.19;;;25.98;70.19
35551;BME280;21655;46.056;13.616;2022-07-04T05:05:34;100400.03;;;26.16;68.77
35551;BME280;21655;46.056;13.616;2022-07-04T05:07:59;100388.19;;;26.49;67.46
35551;BME280;21655;46.056;13.616;2022-07-04T05:10:25;100381.63;;;26.68;66.53
35551;BME280;21655;46.056;13.616;2022-07-04T05:12:51;100386.19;;;26.89;65.94
35551;BME280;21655;46.056;13.616;2022-07-04T05:15:16;100380.47;;;26.84;66.73
35551;BME280;21655;46.056;13.616;2022-07-04T05:17:42;100385.31;;;27.04;65.99
35551;BME280;21655;46.056;13.616;2022-07-04T05:20:09;100379.63;;;26.89;66.60
35551;BME280;21655;46.056;13.616;2022-07-04T05:22:34;100383.34;;;26.59;66.95
35551;BME280;21655;46.056;13.616;2022-07-04T05:25:00;100388.44;;;26.37;68.75
35551;BME280;21655;46.056;13.616;2022-07-04T05:27:26;100405.72;;;26.26;68.78
35551;BME280;21655;46.056;13.616;2022-07-04T05:29:51;100396.31;;;26.10;70.13
35551;BME280;21655;46.056;13.616;2022-07-04T05:32:17;100395.16;;;25.96;71.44
35551;BME280;21655;46.056;13.616;2022-07-04T05:34:42;100389.75;;;25.95;70.88
35551;BME280;21655;46.056;13.616;2022-07-04T05:37:08;100373.63;;;26.20;70.15
35551;BME280;21655;46.056;13.616;2022-07-04T05:39:33;100369.66;;;26.66;67.37
35551;BME280;21655;46.056;13.616;2022-07-04T05:41:59;100368.50;;;27.22;65.23
35551;BME280;21655;46.056;13.616;2022-07-04T05:44:24;100359.25;;;27.60;62.74
35551;BME280;21655;46.056;13.616;2022-07-04T05:46:50;100358.59;;;27.83;62.50
35551;BME280;21655;46.056;13.616;2022-07-04T05:49:15;100358.47;;;28.08;60.88
35551;BME280;21655;46.056;13.616;2022-07-04T05:51:41;100353.63;;;28.47;59.19
35551;BME280;21655;46.056;13.616;2022-07-04T05:54:06;100365.28;;;28.89;57.97
35551;BME280;21655;46.056;13.616;2022-07-04T05:56:31;100363.84;;;29.20;57.18
35551;BME280;21655;46.056;13.616;2022-07-04T05:58:57;100364.28;;;29.31;55.39
35551;BME280;21655;46.056;13.616;2022-07-04T06:01:22;100368.31;;;29.02;55.59
35551;BME280;21655;46.056;13.616;2022-07-04T06:03:49;100363.19;;;28.32;57.21
35551;BME280;21655;46.056;13.616;2022-07-04T06:06:16;100362.97;;;28.19;58.58
35551;BME280;21655;46.056;13.616;2022-07-04T06:08:42;100364.22;;;28.03;58.91
35551;BME280;21655;46.056;13.616;2022-07-04T06:11:07;100356.53;;;27.98;59.25
35551;BME280;21655;46.056;13.616;2022-07-04T06:13:33;100358.31;;;27.84;59.28
35551;BME280;21655;46.056;13.616;2022-07-04T06:15:59;100366.38;;;27.62;59.28
35551;BME280;21655;46.056;13.616;2022-07-04T06:18:25;100358.59;;;27.83;58.63
35551;BME280;21655;46.056;13.616;2022-07-04T06:20:52;100354.78;;;28.51;56.16
35551;BME280;21655;46.056;13.616;2022-07-04T06:23:18;100350.38;;;28.97;54.87
35551;BME280;21655;46.056;13.616;2022-07-04T06:25:44;100338.22;;;28.81;55.43
35551;BME280;21655;46.056;13.616;2022-07-04T06:28:10;100339.41;;;29.32;53.99
35551;BME280;21655;46.056;13.616;2022-07-04T06:30:35;100346.47;;;30.10;53.16
35551;BME280;21655;46.056;13.616;2022-07-04T06:33:00;100330.25;;;30.74;51.59
35551;BME280;21655;46.056;13.616;2022-07-04T06:35:28;100336.59;;;30.53;50.44
35551;BME280;21655;46.056;13.616;2022-07-04T06:38:18;100329.81;;;30.67;50.82
35551;BME280;21655;46.056;13.616;2022-07-04T06:40:44;100332.50;;;30.22;48.61
35551;BME280;21655;46.056;13.616;2022-07-04T06:43:10;100344.84;;;30.41;47.94
35551;BME280;21655;46.056;13.616;2022-07-04T06:45:36;100334.78;;;30.62;47.80
35551;BME280;21655;46.056;13.616;2022-07-04T06:48:03;100336.56;;;30.90;47.45
35551;BME280;21655;46.056;13.616;2022-07-04T06:50:29;100332.41;;;31.14;46.85
35551;BME280;21655;46.056;13.616;2022-07-04T06:53:02;100324.94;;;31.13;46.71
35551;BME280;21655;46.056;13.616;2022-07-04T06:55:35;100323.94;;;31.36;45.70
35551;BME280;21655;46.056;13.616;2022-07-04T06:58:01;100331.06;;;31.65;45.56
35551;BME280;21655;46.056;13.616;2022-07-04T07:00:26;100314.97;;;32.18;43.31
35551;BME280;21655;46.056;13.616;2022-07-04T07:02:56;100329.84;;;32.07;43.61
35551;BME280;21655;46.056;13.616;2022-07-04T07:05:23;100317.72;;;32.10;44.02
35551;BME280;21655;46.056;13.616;2022-07-04T07:07:49;100313.41;;;32.70;43.64
35551;BME280;21655;46.056;13.616;2022-07-04T07:10:14;100312.00;;;32.45;42.67
35551;BME280;21655;46.056;13.616;2022-07-04T07:12:39;100307.88;;;32.38;43.24
35551;BME280;21655;46.056;13.616;2022-07-04T07:15:05;100302.94;;;32.16;43.04
35551;BME280;21655;46.056;13.616;2022-07-04T07:17:31;100305.47;;;32.97;43.04
35551;BME280;21655;46.056;13.616;2022-07-04T07:19:56;100304.41;;;33.37;41.52
35551;BME280;21655;46.056;13.616;2022-07-04T07:22:22;100296.44;;;33.42;40.17
35551;BME280;21655;46.056;13.616;2022-07-04T07:24:47;100297.22;;;33.26;39.65
35551;BME280;21655;46.056;13.616;2022-07-04T07:27:13;100308.94;;;33.30;39.60
35551;BME280;21655;46.056;13.616;2022-07-04T07:29:38;100303.59;;;33.53;39.96
35551;BME280;21655;46.056;13.616;2022-07-04T07:32:05;100301.09;;;33.69;38.84
35551;BME280;21655;46.056;13.616;2022-07-04T07:34:31;100298.91;;;33.66;39.54
35551;BME280;21655;46.056;13.616;2022-07-04T07:36:57;100302.25;;;33.59;38.54
35551;BME280;21655;46.056;13.616;2022-07-04T07:39:22;100303.69;;;33.70;38.62
35551;BME280;21655;46.056;13.616;2022-07-04T07:41:48;100290.22;;;33.96;38.65
35551;BME280;21655;46.056;13.616;2022-07-04T07:44:13;100289.56;;;34.16;38.60
35551;BME280;21655;46.056;13.616;2022-07-04T07:46:39;100291.63;;;34.41;38.88
35551;BME280;21655;46.056;13.616;2022-07-04T07:49:05;100287.00;;;34.91;37.97
35551;BME280;21655;46.056;13.616;2022-07-04T07:51:31;100291.94;;;34.99;37.29
35551;BME280;21655;46.056;13.616;2022-07-04T07:53:56;100272.81;;;34.78;37.50
35551;BME280;21655;46.056;13.616;2022-07-04T07:56:22;100274.75;;;35.57;37.01
35551;BME280;21655;46.056;13.616;2022-07-04T07:58:48;100276.28;;;36.21;36.68
35551;BME280;21655;46.056;13.616;2022-07-04T08:01:13;100271.81;;;35.37;36.86
35551;BME280;21655;46.056;13.616;2022-07-04T08:03:39;100280.56;;;35.03;37.96
35551;BME280;21655;46.056;13.616;2022-07-04T08:06:23;100269.75;;;34.74;38.44
35551;BME280;21655;46.056;13.616;2022-07-04T08:08:48;100265.38;;;34.43;38.82
35551;BME280;21655;46.056;13.616;2022-07-04T08:11:14;100277.19;;;34.84;38.29
35551;BME280;21655;46.056;13.616;2022-07-04T08:13:39;100263.00;;;34.70;38.26
35551;BME280;21655;46.056;13.616;2022-07-04T08:16:06;100266.81;;;33.89;39.98
35551;BME280;21655;46.056;13.616;2022-07-04T08:18:32;100262.47;;;34.17;39.29
35551;BME280;21655;46.056;13.616;2022-07-04T08:20:58;100251.81;;;34.52;37.99
35551;BME280;21655;46.056;13.616;2022-07-04T08:23:24;100242.66;;;35.67;37.69
35551;BME280;21655;46.056;13.616;2022-07-04T08:25:50;100248.03;;;36.67;35.92
35551;BME280;21655;46.056;13.616;2022-07-04T08:28:15;100255.22;;;37.38;34.56
35551;BME280;21655;46.056;13.616;2022-07-04T08:30:41;100238.69;;;37.27;34.68
35551;BME280;21655;46.056;13.616;2022-07-04T08:33:06;100238.44;;;37.44;33.43
35551;BME280;21655;46.056;13.616;2022-07-04T08:35:32;100231.84;;;38.03;32.79
35551;BME280;21655;46.056;13.616;2022-07-04T08:37:59;100239.78;;;38.06;32.32
35551;BME280;21655;46.056;13.616;2022-07-04T08:40:26;100227.44;;;38.33;32.41
35551;BME280;21655;46.056;13.616;2022-07-04T08:42:53;100223.81;;;38.12;32.51
35551;BME280;21655;46.056;13.616;2022-07-04T08:45:25;100226.16;;;38.06;32.70
35551;BME280;21655;46.056;13.616;2022-07-04T08:47:51;100217.72;;;37.54;33.00
35551;BME280;21655;46.056;13.616;2022-07-04T08:50:26;100215.88;;;37.97;32.42
35551;BME280;21655;46.056;13.616;2022-07-04T08:53:02;100209.53;;;37.91;32.14
35551;BME280;21655;46.056;13.616;2022-07-04T08:55:28;100205.63;;;37.87;31.94
35551;BME280;21655;46.056;13.616;2022-07-04T08:58:13;100200.63;;;38.12;31.73
35551;BME280;21655;46.056;13.616;2022-07-04T09:00:54;100202.25;;;38.76;30.63
35551;BME280;21655;46.056;13.616;2022-07-04T09:03:21;100200.22;;;38.92;31.18
35551;BME280;21655;46.056;13.616;2022-07-04T09:05:47;100197.72;;;39.84;29.94
35551;BME280;21655;46.056;13.616;2022-07-04T09:08:13;100201.75;;;40.48;27.74
35551;BME280;21655;46.056;13.616;2022-07-04T09:10:38;100208.06;;;40.34;27.47
35551;BME280;21655;46.056;13.616;2022-07-04T09:13:08;100206.38;;;40.33;28.10
35551;BME280;21655;46.056;13.616;2022-07-04T09:15:34;100212.94;;;39.96;28.37
35551;BME280;21655;46.056;13.616;2022-07-04T09:18:01;100213.09;;;40.03;27.67
35551;BME280;21655;46.056;13.616;2022-07-04T09:20:28;100215.53;;;40.70;27.50
35551;BME280;21655;46.056;13.616;2022-07-04T09:22:54;100213.16;;;40.94;27.80
35551;BME280;21655;46.056;13.616;2022-07-04T09:25:22;100213.91;;;41.33;26.42
35551;BME280;21655;46.056;13.616;2022-07-04T09:27:52;100223.91;;;42.06;25.20
35551;BME280;21655;46.056;13.616;2022-07-04T09:30:24;100223.41;;;42.01;25.48
35551;BME280;21655;46.056;13.616;2022-07-04T09:32:54;100224.66;;;41.51;25.10
35551;BME280;21655;46.056;13.616;2022-07-04T09:35:27;100219.38;;;41.83;25.40
35551;BME280;21655;46.056;13.616;2022-07-04T09:37:55;100220.16;;;41.80;24.96
35551;BME280;21655;46.056;13.616;2022-07-04T09:42:48;100210.34;;;41.91;25.01
35551;BME280;21655;46.056;13.616;2022-07-04T09:45:14;100204.34;;;41.81;22.86
35551;BME280;21655;46.056;13.616;2022-07-04T09:47:41;100207.53;;;41.50;23.96
35551;BME280;21655;46.056;13.616;2022-07-04T09:50:18;100202.94;;;41.71;23.12
35551;BME280;21655;46.056;13.616;2022-07-04T09:57:56;100205.56;;;42.31;20.86
35551;BME280;21655;46.056;13.616;2022-07-04T10:02:50;100190.66;;;41.36;18.84
35551;BME280;21655;46.056;13.616;2022-07-04T10:05:22;100198.34;;;41.03;19.29
35551;BME280;21655;46.056;13.616;2022-07-04T10:07:48;100185.94;;;41.06;20.13
35551;BME280;21655;46.056;13.616;2022-07-04T10:10:33;100192.66;;;41.55;20.44
35551;BME280;21655;46.056;13.616;2022-07-04T10:13:08;100184.28;;;41.76;19.65
35551;BME280;21655;46.056;13.616;2022-07-04T10:15:37;100186.16;;;41.39;19.44
35551;BME280;21655;46.056;13.616;2022-07-04T10:18:04;100180.81;;;41.22;19.89
35551;BME280;21655;46.056;13.616;2022-07-04T10:20:30;100178.53;;;41.12;19.97
35551;BME280;21655;46.056;13.616;2022-07-04T10:22:56;100174.09;;;40.95;20.17
35551;BME280;21655;46.056;13.616;2022-07-04T10:25:22;100165.53;;;40.64;19.56
35551;BME280;21655;46.056;13.616;2022-07-04T10:27:48;100171.28;;;40.61;19.34
35551;BME280;21655;46.056;13.616;2022-07-04T10:30:24;100169.50;;;40.94;20.06
35551;BME280;21655;46.056;13.616;2022-07-04T10:32:51;100170.13;;;41.07;18.67
35551;BME280;21655;46.056;13.616;2022-07-04T10:35:16;100173.09;;;41.10;18.68
35551;BME280;21655;46.056;13.616;2022-07-04T10:38:11;100173.25;;;40.76;18.39
35551;BME280;21655;46.056;13.616;2022-07-04T10:40:45;100172.81;;;40.01;19.05
35551;BME280;21655;46.056;13.616;2022-07-04T10:54:33;100153.31;;;39.06;19.74
35551;BME280;21655;46.056;13.616;2022-07-04T10:57:21;100151.47;;;39.13;20.95
35551;BME280;21655;46.056;13.616;2022-07-04T11:02:26;100139.75;;;39.91;20.08
35551;BME280;21655;46.056;13.616;2022-07-04T11:20:26;100104.59;;;39.46;20.71
35551;BME280;21655;46.056;13.616;2022-07-04T11:22:53;100105.09;;;39.48;20.14
35551;BME280;21655;46.056;13.616;2022-07-04T11:25:18;100114.31;;;39.53;19.56
35551;BME280;21655;46.056;13.616;2022-07-04T11:27:44;100104.53;;;39.42;19.75
35551;BME280;21655;46.056;13.616;2022-07-04T11:30:10;100104.03;;;39.21;19.36
35551;BME280;21655;46.056;13.616;2022-07-04T11:32:37;100100.34;;;38.93;19.63
35551;BME280;21655;46.056;13.616;2022-07-04T11:35:05;100102.31;;;38.89;20.29
35551;BME280;21655;46.056;13.616;2022-07-04T11:37:31;100100.78;;;38.80;20.38
35551;BME280;21655;46.056;13.616;2022-07-04T11:39:57;100103.84;;;38.71;20.09
35551;BME280;21655;46.056;13.616;2022-07-04T11:43:05;100096.53;;;38.89;19.72
35551;BME280;21655;46.056;13.616;2022-07-04T11:45:50;100097.97;;;38.68;20.05
35551;BME280;21655;46.056;13.616;2022-07-04T11:48:27;100086.44;;;38.71;20.88
35551;BME280;21655;46.056;13.616;2022-07-04T11:50:53;100090.31;;;38.75;21.12
35551;BME280;21655;46.056;13.616;2022-07-04T11:53:19;100085.50;;;38.52;20.69
35551;BME280;21655;46.056;13.616;2022-07-04T11:55:56;100087.28;;;38.29;21.79
35551;BME280;21655;46.056;13.616;2022-07-04T11:58:22;100065.69;;;38.54;20.88
35551;BME280;21655;46.056;13.616;2022-07-04T12:00:47;100081.97;;;38.58;20.89
35551;BME280;21655;46.056;13.616;2022-07-04T12:03:13;100087.41;;;38.75;21.18
35551;BME280;21655;46.056;13.616;2022-07-04T12:05:38;100081.75;;;38.36;20.86
35551;BME280;21655;46.056;13.616;2022-07-04T12:08:04;100091.69;;;37.95;21.76
35551;BME280;21655;46.056;13.616;2022-07-04T12:10:33;100087.47;;;37.93;21.88
35551;BME280;21655;46.056;13.616;2022-07-04T12:16:11;100087.09;;;38.22;21.60
35551;BME280;21655;46.056;13.616;2022-07-04T12:18:30;100087.72;;;38.43;21.59
35551;BME280;21655;46.056;13.616;2022-07-04T12:21:15;100086.00;;;37.99;22.06
35551;BME280;21655;46.056;13.616;2022-07-04T12:23:54;100089.06;;;37.90;22.13
35551;BME280;21655;46.056;13.616;2022-07-04T12:26:19;100091.53;;;38.04;21.69
35551;BME280;21655;46.056;13.616;2022-07-04T12:28:45;100090.44;;;38.36;22.18
35551;BME280;21655;46.056;13.616;2022-07-04T12:31:11;100085.94;;;38.81;21.24
35551;BME280;21655;46.056;13.616;2022-07-04T12:33:36;100082.84;;;38.47;20.29
35551;BME280;21655;46.056;13.616;2022-07-04T12:36:03;100085.25;;;38.72;21.19
35551;BME280;21655;46.056;13.616;2022-07-04T12:41:00;100083.31;;;38.33;20.23
35551;BME280;21655;46.056;13.616;2022-07-04T12:46:05;100095.53;;;37.87;20.43
35551;BME280;21655;46.056;13.616;2022-07-04T12:48:31;100088.22;;;37.78;20.59
35551;BME280;21655;46.056;13.616;2022-07-04T12:53:39;100097.38;;;37.80;21.58
35551;BME280;21655;46.056;13.616;2022-07-04T12:56:05;100089.47;;;38.04;20.82
35551;BME280;21655;46.056;13.616;2022-07-04T12:58:31;100086.09;;;38.02;20.71
35551;BME280;21655;46.056;13.616;2022-07-04T13:00:56;100090.88;;;37.83;20.32
35551;BME280;21655;46.056;13.616;2022-07-04T13:03:22;100095.22;;;37.77;20.70
35551;BME280;21655;46.056;13.616;2022-07-04T13:05:48;100079.47;;;37.63;21.41
35551;BME280;21655;46.056;13.616;2022-07-04T13:08:14;100080.94;;;37.57;20.82
35551;BME280;21655;46.056;13.616;2022-07-04T13:10:40;100084.25;;;37.71;20.54
35551;BME280;21655;46.056;13.616;2022-07-04T13:13:06;100085.91;;;37.83;20.29
35551;BME280;21655;46.056;13.616;2022-07-04T13:15:31;100081.91;;;37.88;20.93
35551;BME280;21655;46.056;13.616;2022-07-04T13:17:57;100096.91;;;37.90;21.03
35551;BME280;21655;46.056;13.616;2022-07-04T13:34:27;100087.88;;;37.68;21.35
35551;BME280;21655;46.056;13.616;2022-07-04T13:36:52;100086.00;;;37.48;21.51
35551;BME280;21655;46.056;13.616;2022-07-04T13:39:20;100077.09;;;37.29;22.43
35551;BME280;21655;46.056;13.616;2022-07-04T13:41:46;100077.16;;;37.44;21.63
35551;BME280;21655;46.056;13.616;2022-07-04T13:44:11;100076.34;;;37.44;22.13
35551;BME280;21655;46.056;13.616;2022-07-04T13:46:42;100079.38;;;37.11;22.77